Latest Weather Observations for Geraldton Airport

IDW60801

Issued at 6:03 pm WST Friday 24 February 2017 (issued every 30 minutes, with the page automatically refreshed every 10 minutes)

About weather observations | Map of weather stations | Latest weather observations for WA | Other Formats
Station Details ID: 008315 Name: GERALDTON AIRPORT Lat: -28.80 Lon: 114.70 Height: 29.7 m
Data from the previous 72 hours. | See also: Recent months at Geraldton Airport
Date/Time
WST
Temp
°C
App
Temp
°C
Dew
Point
°C
Rel
Hum
%
Delta-T
°C
Wind Press
QNH
hPa
Press
MSL
hPa
Rain since
9am
mm
Dir  Spd
km/h
Gust
km/h
Spd
kts
Gust
kts
24/06:00pm 32.6 27.8 11.8 28 12.3 S 28 39 15 21 1012.8 1012.6 0.0
24/05:30pm 35.4 28.8 6.1 16 16.0 S 30 35 16 19 1012.6 - 0.0
24/05:00pm 36.0 29.9 6.7 16 16.2 S 28 35 15 19 1012.6 - 0.0
24/04:30pm 36.7 30.7 7.0 16 16.5 SSW 28 37 15 20 1012.8 - 0.0
24/04:00pm 37.5 29.8 2.4 11 18.3 SSW 32 37 17 20 1012.7 - 0.0
24/03:30pm 37.8 30.7 3.6 12 18.2 SSW 30 41 16 22 1012.9 - 0.0
24/03:00pm 38.7 30.8 -1.4 8 19.8 SW 30 37 16 20 1013.0 1012.8 0.0
24/02:30pm 38.9 31.6 -0.3 8 19.8 SW 28 39 15 21 1013.4 - 0.0
24/02:00pm 39.4 32.3 -1.0 8 20.2 WSW 26 35 14 19 1013.6 - 0.0
24/01:30pm 39.8 35.5 -1.8 7 20.6 ENE 11 24 6 13 1014.3 - 0.0
24/01:00pm 39.8 33.7 -3.5 6 20.9 E 19 28 10 15 1014.5 - 0.0
24/12:30pm 39.2 34.3 -0.5 8 20.0 ESE 15 24 8 13 1014.8 - 0.0
24/12:00pm 39.9 34.1 -1.4 7 20.6 NNE 19 30 10 16 1015.2 1015.0 0.0
24/11:30am 38.5 31.5 -0.4 8 19.5 NE 26 37 14 20 1015.7 - 0.0
24/11:00am 37.7 29.0 -0.7 9 19.1 NE 35 46 19 25 1015.9 - 0.0
24/10:30am 36.7 28.2 0.6 10 18.2 NNE 35 46 19 25 1016.2 - 0.0
24/10:00am 36.2 27.8 1.6 11 17.7 NE 35 46 19 25 1016.4 - 0.0
24/09:30am 33.8 24.7 1.7 13 16.2 NE 39 52 21 28 1016.6 - 0.0
24/09:00am 32.9 26.0 2.6 14 15.4 NE 28 39 15 21 1016.8 1016.6 0.0
24/08:30am 31.3 23.2 3.5 17 14.2 NE 35 44 19 24 1017.1 - 0.0
24/08:00am 29.7 22.2 3.7 19 13.2 NE 32 37 17 20 1016.9 - 0.0
24/07:30am 28.1 20.6 3.6 20 12.3 NE 32 44 17 24 1016.7 - 0.0
24/07:00am 25.8 20.2 5.2 26 10.5 NE 24 33 13 18 1016.6 - 0.0
24/06:50am 24.7 20.5 5.7 29 9.7 NE 17 30 9 16 1016.5 - 0.0
24/06:30am 19.7 17.4 9.1 50 5.6 NNE 11 13 6 7 1016.4 - 0.0
24/06:00am 17.8 14.9 9.7 59 4.3 NE 15 17 8 9 1016.1 1015.9 0.0
24/05:30am 17.1 14.6 11.2 68 3.2 NE 15 17 8 9 1016.0 - 0.0
24/05:00am 16.8 14.5 13.0 78 2.1 NE 17 19 9 10 1015.8 - 0.0
24/04:30am 15.8 13.9 14.1 90 1.0 NE 17 19 9 10 1015.7 - 0.0
24/04:00am 15.1 13.8 13.7 91 0.8 NE 13 15 7 8 1015.8 - 0.0
24/03:30am 15.5 14.4 14.3 92 0.7 NE 13 13 7 7 1015.8 - 0.0
24/03:00am 15.1 15.1 14.2 94 0.5 E 7 7 4 4 1015.9 1015.7 0.0
24/02:30am 16.4 16.9 15.6 95 0.5 E 7 9 4 5 1015.9 - 0.0
24/02:00am 16.1 16.7 15.3 95 0.5 E 6 7 3 4 1016.1 - 0.0
24/01:30am 16.5 17.2 15.7 95 0.5 SE 6 9 3 5 1016.4 - 0.0
24/01:00am 16.8 17.6 15.8 94 0.6 SE 6 6 3 3 1016.6 - 0.0
24/12:30am 17.8 19.7 16.8 94 0.6 ESE 2 9 1 5 1016.8 - 0.0
24/12:00am 17.3 17.8 15.6 90 1.0 ESE 7 7 4 4 1017.0 1016.8 0.0
 
Date/Time
WST
Temp
°C
App
Temp
°C
Dew
Point
°C
Rel
Hum
%
Delta-T
°C
Wind Press
QNH
hPa
Press
MSL
hPa
Rain since
9am
mm
Dir  Spd
km/h
Gust
km/h
Spd
kts
Gust
kts
23/11:30pm 18.0 18.9 16.6 91 0.8 SE 7 9 4 5 1017.1 - 0.0
23/11:00pm 18.9 19.5 16.8 87 1.3 SE 9 11 5 6 1017.4 - 0.0
23/10:30pm 19.5 20.3 17.4 88 1.3 ESE 9 11 5 6 1017.6 - 0.0
23/10:00pm 20.5 21.0 17.5 83 1.8 SSE 11 13 6 7 1017.8 - 0.0
23/09:30pm 21.7 21.8 17.5 77 2.6 SSE 13 17 7 9 1017.7 - 0.0
23/09:00pm 22.5 21.2 16.8 70 3.5 SSE 19 26 10 14 1017.5 1017.3 0.0
23/08:30pm 22.9 20.8 16.2 66 4.1 SSE 22 26 12 14 1017.2 - 0.0
23/08:00pm 23.3 20.7 15.8 62 4.5 SSE 24 28 13 15 1016.9 - 0.0
23/07:30pm 23.8 20.6 15.3 59 5.1 SSE 26 35 14 19 1016.5 - 0.0
23/07:00pm 24.8 20.8 14.0 51 6.4 SSE 28 35 15 19 1016.3 - 0.0
23/06:30pm 26.0 20.6 12.7 43 7.7 SSE 33 46 18 25 1015.8 - 0.0
23/06:00pm 27.4 21.8 11.5 37 9.1 SSE 32 43 17 23 1015.7 1015.5 0.0
23/05:30pm 27.8 20.7 9.7 32 10.1 S 37 48 20 26 1015.5 - 0.0
23/05:00pm 28.8 22.6 11.3 33 10.1 S 35 43 19 23 1015.5 - 0.0
23/04:30pm 29.4 23.0 10.6 31 10.7 S 35 46 19 25 1015.3 - 0.0
23/04:00pm 29.9 23.9 10.9 31 10.9 S 33 44 18 24 1015.3 - 0.0
23/03:30pm 30.7 24.8 10.5 28 11.6 S 32 43 17 23 1015.2 - 0.0
23/03:00pm 31.7 25.2 10.2 26 12.3 S 35 44 19 24 1015.3 1015.1 0.0
23/02:30pm 32.0 25.6 8.5 23 13.1 S 32 41 17 22 1015.4 - 0.0
23/02:00pm 32.2 26.5 9.9 25 12.7 S 30 39 16 21 1015.8 - 0.0
23/01:30pm 33.1 26.9 8.0 21 14.0 S 30 39 16 21 1015.9 - 0.0
23/01:26pm 32.3 26.8 9.0 23 13.1 S 28 39 15 21 1016.0 - 0.0
23/01:00pm 33.7 29.5 5.6 17 15.1 SSE 17 20 9 11 1016.1 - 0.0
23/12:30pm 33.4 27.6 -0.3 11 16.4 SSE 20 32 11 17 1016.4 - 0.0
23/12:00pm 33.5 27.8 -1.0 11 16.6 E 19 32 10 17 1016.8 1016.6 0.0
23/11:30am 33.2 27.4 -0.4 11 16.3 ENE 20 26 11 14 1017.3 - 0.0
23/11:00am 32.2 27.4 0.1 13 15.6 E 15 28 8 15 1017.8 - 0.0
23/10:30am 32.6 26.1 0.2 12 15.8 ENE 24 33 13 18 1018.0 - 0.0
23/10:00am 31.1 24.4 1.6 15 14.6 ENE 26 35 14 19 1018.2 - 0.0
23/09:30am 29.5 24.4 3.3 18 13.2 ENE 19 24 10 13 1018.3 - 0.0
23/09:00am 27.1 24.6 6.5 27 10.8 S 9 15 5 8 1018.6 1018.5 0.0
23/08:30am 24.8 23.0 7.0 32 9.3 SSE 6 13 3 7 1018.6 - 0.0
23/08:00am 24.3 19.4 6.7 32 9.1 NE 22 30 12 16 1018.2 - 0.0
23/07:30am 23.0 17.7 6.7 35 8.4 NE 24 35 13 19 1018.1 - 0.0
23/07:00am 21.0 17.2 7.5 41 7.0 NE 17 20 9 11 1017.9 - 0.0
23/06:30am 19.5 16.6 8.1 47 5.9 ENE 13 19 7 10 1017.6 - 0.0
23/06:00am 19.8 17.5 7.4 44 6.3 NE 9 26 5 14 1017.3 1017.1 0.0
23/05:30am 18.3 16.9 8.9 54 4.9 E 6 15 3 8 1017.4 - 0.0
23/05:00am 16.4 15.3 10.0 66 3.4 SSW 6 9 3 5 1017.3 - 0.0
23/04:30am 14.8 12.6 10.8 77 2.1 SSE 13 15 7 8 1017.3 - 0.0
23/04:00am 13.9 11.9 11.5 85 1.3 SSE 13 15 7 8 1017.3 - 0.0
23/03:30am 13.5 12.8 11.4 87 1.1 SSE 6 9 3 5 1017.3 - 0.0
23/03:00am 14.3 12.0 11.7 84 1.4 SSE 15 15 8 8 1017.3 1017.1 0.0
23/02:30am 14.2 12.7 11.8 85 1.3 SSE 11 13 6 7 1017.5 - 0.0
23/02:00am 15.1 13.3 12.0 82 1.7 SSE 13 17 7 9 1017.6 - 0.0
23/01:30am 15.3 13.5 12.0 81 1.8 SSE 13 17 7 9 1017.8 - 0.0
23/01:00am 16.2 13.6 12.0 76 2.3 SSE 17 20 9 11 1018.0 - 0.0
23/12:30am 15.9 14.1 12.1 78 2.1 SSE 13 15 7 8 1018.1 - 0.0
23/12:00am 16.7 14.9 12.1 74 2.5 SSE 13 17 7 9 1018.2 1018.0 0.0
 
Date/Time
WST
Temp
°C
App
Temp
°C
Dew
Point
°C
Rel
Hum
%
Delta-T
°C
Wind Press
QNH
hPa
Press
MSL
hPa
Rain since
9am
mm
Dir  Spd
km/h
Gust
km/h
Spd
kts
Gust
kts
22/11:30pm 17.7 14.7 12.1 69 3.1 SSE 19 24 10 13 1018.1 - 0.0
22/11:00pm 18.9 14.2 12.1 64 3.8 SSE 28 33 15 18 1018.2 - 0.0
22/10:30pm 19.2 15.7 12.2 64 3.9 SSE 22 30 12 16 1018.5 - 0.0
22/10:00pm 19.3 16.0 12.7 65 3.7 SSE 22 28 12 15 1018.3 - 0.0
22/09:30pm 19.8 17.0 14.3 70 3.2 SE 22 30 12 16 1018.3 - 0.0
22/09:00pm 20.6 17.4 15.4 72 3.1 SSE 26 33 14 18 1018.3 1018.1 0.0
22/08:30pm 20.8 17.0 15.8 73 3.0 SSE 30 43 16 23 1018.0 - 0.0
22/08:00pm 20.8 16.5 15.4 71 3.2 SSE 32 39 17 21 1017.7 - 0.0
22/07:30pm 21.1 16.6 15.0 68 3.6 SSE 32 43 17 23 1017.5 - 0.0
22/07:00pm 21.5 16.7 14.6 65 4.1 SSE 33 43 18 23 1017.2 - 0.0
22/06:30pm 22.3 17.0 14.3 60 4.7 SSE 35 46 19 25 1016.8 - 0.0
22/06:00pm 23.4 18.3 13.7 54 5.7 S 33 46 18 25 1016.6 1016.4 0.0
22/05:30pm 24.4 18.7 13.1 49 6.6 S 35 46 19 25 1016.4 - 0.0
22/05:00pm 24.9 19.4 12.6 46 7.1 S 33 43 18 23 1016.3 - 0.0
22/04:30pm 25.5 20.0 12.3 43 7.6 S 33 43 18 23 1016.1 - 0.0
22/04:00pm 26.6 20.9 11.1 38 8.8 S 32 41 17 22 1016.1 - 0.0
22/03:30pm 26.7 20.9 10.8 37 9.0 S 32 41 17 22 1016.4 - 0.0
22/03:00pm 25.4 19.3 11.7 42 7.8 S 35 44 19 24 1016.5 1016.3 0.0
22/02:30pm 26.9 20.2 9.8 34 9.5 SSW 35 44 19 24 1016.8 - 0.0
22/02:00pm 26.0 20.0 10.7 38 8.6 SSW 33 44 18 24 1017.0 - 0.0
22/01:30pm 27.4 21.6 9.3 32 10.0 S 30 39 16 21 1017.2 - 0.0
22/01:00pm 29.4 24.0 2.4 17 13.4 SE 20 26 11 14 1017.6 - 0.0
22/12:30pm 27.6 23.1 4.0 22 11.9 SSE 17 30 9 16 1017.8 - 0.0
22/12:00pm 26.7 22.4 3.3 22 11.6 E 15 22 8 12 1018.3 1018.1 0.0
22/11:30am 25.3 20.4 5.3 27 10.2 SE 20 41 11 22 1018.7 - 0.0
22/11:00am 24.2 19.6 5.7 30 9.4 ESE 19 32 10 17 1019.1 - 0.0
22/10:30am 24.7 20.0 5.1 28 9.9 ESE 19 28 10 15 1019.4 - 0.0
22/10:00am 23.8 18.2 5.6 31 9.2 SE 24 33 13 18 1019.7 - 0.0
22/09:30am 23.0 17.7 6.7 35 8.4 SE 24 35 13 19 1019.9 - 0.0
22/09:00am 21.0 15.0 6.9 40 7.2 SE 28 37 15 20 1020.0 1019.9 0.0
22/08:30am 20.0 13.9 6.6 41 6.7 SE 28 37 15 20 1019.9 - 0.0
22/08:00am 19.1 12.2 6.5 43 6.3 SE 32 43 17 23 1019.8 - 0.0
22/07:30am 17.9 12.4 9.1 56 4.6 SE 28 33 15 18 1019.7 - 0.0
22/07:00am 16.6 12.7 9.3 62 3.8 SE 20 28 11 15 1019.6 - 0.0
22/06:30am 13.7 10.3 9.0 73 2.4 SE 17 19 9 10 1019.2 - 0.0
22/06:00am 13.1 11.2 9.0 76 2.1 SE 9 13 5 7 1019.1 1019.0 0.0
22/05:30am 13.8 11.1 8.9 72 2.5 SSE 13 17 7 9 1018.7 - 0.0
22/05:00am 14.1 11.4 8.9 71 2.6 SSE 13 17 7 9 1018.5 - 0.0
22/04:30am 15.0 11.5 8.7 66 3.2 SE 17 20 9 11 1018.1 - 0.0
22/04:00am 14.6 11.1 8.7 67 3.0 SSE 17 19 9 10 1017.8 - 0.0
22/03:30am 15.2 10.3 8.5 64 3.4 SSE 24 28 13 15 1017.5 - 0.0
22/03:00am 14.9 11.1 8.9 67 3.1 SE 19 24 10 13 1017.5 1017.3 0.0
22/02:30am 14.7 10.9 9.0 68 2.9 SE 19 20 10 11 1017.6 - 0.0
22/02:00am 14.5 11.1 9.0 69 2.8 SE 17 20 9 11 1017.7 - 0.0
22/01:30am 15.2 11.2 9.0 66 3.2 SSE 20 28 11 15 1017.8 - 0.0
22/01:00am 16.2 12.1 8.8 61 3.8 SE 20 28 11 15 1018.0 - 0.0
22/12:30am 16.1 12.7 9.1 63 3.6 SE 17 20 9 11 1018.2 - 0.0
22/12:00am 16.7 12.8 8.8 59 4.1 SE 19 24 10 13 1018.2 1018.0 0.0
 
Date/Time
WST
Temp
°C
App
Temp
°C
Dew
Point
°C
Rel
Hum
%
Delta-T
°C
Wind Press
QNH
hPa
Press
MSL
hPa
Rain since
9am
mm
Dir  Spd
km/h
Gust
km/h
Spd
kts
Gust
kts
21/11:30pm 16.4 13.0 9.0 61 3.8 SE 17 20 9 11 1018.3 - 0.0
21/11:00pm 16.7 13.4 9.4 62 3.8 SE 17 20 9 11 1018.5 - 0.0
21/10:30pm 17.8 14.7 10.3 61 4.0 SE 17 20 9 11 1018.7 - 0.0
21/10:00pm 18.5 15.1 10.5 59 4.3 SSE 19 26 10 14 1018.6 - 0.0
21/09:30pm 18.9 15.2 10.2 57 4.7 S 20 26 11 14 1018.5 - 0.0
21/09:00pm 18.9 15.2 10.2 57 4.7 S 20 28 11 15 1018.4 1018.3 0.0
21/08:30pm 19.2 15.1 10.0 55 4.9 S 22 30 12 16 1018.2 - 0.0
21/08:00pm 19.5 15.0 10.0 54 5.1 S 24 32 13 17 1017.9 - 0.0
21/07:30pm 19.8 15.0 10.4 54 5.1 S 26 33 14 18 1017.5 - 0.0
21/07:00pm 20.5 15.2 11.2 55 5.1 S 30 41 16 22 1017.1 - 0.0
21/06:30pm 21.0 15.3 9.9 49 6.0 S 30 41 16 22 1016.8 - 0.0

Other Formats:

Comma delimited format used in spreadsheet applications
http://www.bom.gov.au/fwo/IDW60801/IDW60801.94403.axf

JavaScript Object Notation format (JSON) in row-major order
http://www.bom.gov.au/fwo/IDW60801/IDW60801.94403.json